Date,TemperatureHighF,TemperatureAvgF,TemperatureLowF,DewpointHighF,DewpointAvgF,DewpointLowF,HumidityHigh,HumidityAvg,HumidityLow,PressureMaxIn,PressureMinIn,WindSpeedMaxMPH,WindSpeedAvgMPH,GustSpeedMaxMPH,PrecipitationSumIn
2013-2-1,68.9,57.5,45.5,52.0,44.8,39.0,86,64,36,30.16,30.09,7,2,9,0.00
2013-2-2,68.9,59.4,52.0,53.1,48.1,44.0,78,67,49,30.17,30.08,13,2,16,0.00
2013-2-3,68.4,60.2,50.8,54.0,49.3,44.0,84,68,51,30.12,30.01,9,2,13,0.00
2013-2-4,56.9,50.9,44.4,51.1,48.1,41.0,97,90,75,30.08,29.97,9,2,14,0.00
2013-2-5,54.3,51.3,47.3,51.0,48.9,47.0,98,91,83,30.10,29.99,6,1,10,0.00
2013-2-6,58.2,53.8,47.0,50.0,47.9,44.8,92,81,70,30.09,29.99,10,2,13,0.00
2013-2-7,56.2,50.7,41.7,51.0,46.1,39.8,95,84,71,30.11,30.00,11,3,13,0.01
2013-2-8,53.0,48.6,41.1,47.5,41.5,38.0,92,77,64,30.00,29.88,18,6,25,0.29
2013-2-9,55.4,45.6,35.1,45.0,39.2,33.5,95,80,50,30.09,29.91,6,2,12,0.00
2013-2-10,55.5,47.3,38.8,45.1,40.8,34.7,90,79,62,30.09,30.01,8,2,11,0.02
2013-2-11,56.6,47.7,37.6,47.2,42.1,35.0,92,81,58,30.22,30.04,19,4,19,0.00
2013-2-12,57.0,47.6,36.6,48.2,38.7,29.0,85,72,53,30.34,30.22,13,3,15,0.00
2013-2-13,58.3,48.2,37.1,50.0,41.2,32.0,86,77,53,30.25,30.13,10,3,14,0.00
2013-2-14,62.1,51.3,40.1,53.0,45.2,36.7,89,80,56,30.20,30.05,12,3,16,0.00
2013-2-15,73.3,62.6,49.6,48.0,34.1,22.0,84,38,19,30.16,30.09,11,3,17,0.00
2013-2-16,77.4,66.3,51.4,37.0,23.1,16.0,51,21,12,30.12,29.96,15,3,17,0.00
2013-2-17,59.2,52.5,43.5,51.0,41.9,26.0,85,69,45,30.02,29.92,11,3,13,0.00
2013-2-18,58.0,52.9,49.7,49.0,45.6,42.0,84,76,65,30.05,29.96,11,2,15,0.00
2013-2-19,53.0,50.3,46.1,49.0,43.2,39.6,93,77,65,29.98,29.70,13,4,25,0.26
2013-2-20,53.8,49.2,43.4,42.0,37.0,29.0,77,63,45,29.99,29.68,26,8,34,0.01
2013-2-21,57.5,50.2,43.1,46.0,42.1,38.0,89,74,55,30.08,29.97,10,3,15,0.00
2013-2-22,57.7,48.8,36.4,49.0,41.9,33.5,89,77,59,30.18,30.08,11,3,14,0.00
2013-2-23,58.1,49.3,38.7,49.1,42.5,33.7,91,78,53,30.15,29.94,8,2,12,0.00
2013-2-24,69.2,53.2,41.8,47.0,34.5,9.3,93,60,10,30.18,29.96,10,2,19,0.01
2013-2-25,62.0,50.2,37.7,49.1,34.4,20.0,83,56,24,30.19,30.07,12,3,15,0.00
2013-2-26,58.3,50.0,35.5,50.4,41.0,30.0,87,72,56,30.10,29.98,11,3,16,0.00
2013-2-27,66.5,57.8,46.6,42.0,28.9,16.8,77,35,20,30.25,30.10,11,3,17,0.00
2013-2-28,70.6,59.4,44.7,39.0,25.8,15.0,53,30,13,30.29,30.21,12,3,16,0.00